sensor_id;sensor_type;location;lat;lon;timestamp;pressure;altitude;pressure_sealevel;temperature;humidity
12775;BME280;6451;42.630;23.382;2023-04-06T00:02:00;94073.97;;;5.07;70.58
12775;BME280;6451;42.630;23.382;2023-04-06T00:04:27;94086.75;;;5.10;72.04
12775;BME280;6451;42.630;23.382;2023-04-06T00:06:54;94084.88;;;5.01;72.08
12775;BME280;6451;42.630;23.382;2023-04-06T00:09:24;94071.56;;;5.22;72.03
12775;BME280;6451;42.630;23.382;2023-04-06T00:11:53;94043.59;;;5.06;72.00
12775;BME280;6451;42.630;23.382;2023-04-06T00:14:21;93984.00;;;4.69;72.71
12775;BME280;6451;42.630;23.382;2023-04-06T00:16:48;94074.13;;;5.01;72.27
12775;BME280;6451;42.630;23.382;2023-04-06T00:19:15;94061.63;;;4.97;72.16
12775;BME280;6451;42.630;23.382;2023-04-06T00:21:42;94044.84;;;5.09;71.57
12775;BME280;6451;42.630;23.382;2023-04-06T00:24:09;94044.03;;;5.17;71.60
12775;BME280;6451;42.630;23.382;2023-04-06T00:26:36;94061.75;;;5.26;70.65
12775;BME280;6451;42.630;23.382;2023-04-06T00:29:04;94052.75;;;4.96;72.19
12775;BME280;6451;42.630;23.382;2023-04-06T00:31:31;94056.19;;;5.40;71.11
12775;BME280;6451;42.630;23.382;2023-04-06T00:33:59;94040.72;;;5.11;70.87
12775;BME280;6451;42.630;23.382;2023-04-06T00:36:26;94058.09;;;5.40;71.30
12775;BME280;6451;42.630;23.382;2023-04-06T00:38:54;94036.91;;;5.29;70.98
12775;BME280;6451;42.630;23.382;2023-04-06T00:41:21;94057.16;;;5.18;71.64
12775;BME280;6451;42.630;23.382;2023-04-06T00:43:50;94041.34;;;5.25;70.71
12775;BME280;6451;42.630;23.382;2023-04-06T00:46:19;94048.16;;;4.97;71.66
12775;BME280;6451;42.630;23.382;2023-04-06T00:48:46;94027.25;;;5.37;71.06
12775;BME280;6451;42.630;23.382;2023-04-06T00:51:13;94033.41;;;5.29;70.74
12775;BME280;6451;42.630;23.382;2023-04-06T00:53:40;94055.31;;;4.93;72.75
12775;BME280;6451;42.630;23.382;2023-04-06T00:56:13;94044.25;;;4.77;73.09
12775;BME280;6451;42.630;23.382;2023-04-06T00:58:40;94048.66;;;4.90;73.27
12775;BME280;6451;42.630;23.382;2023-04-06T01:01:08;94025.09;;;4.35;74.16
12775;BME280;6451;42.630;23.382;2023-04-06T01:03:37;94038.38;;;4.92;72.87
12775;BME280;6451;42.630;23.382;2023-04-06T01:06:04;94062.72;;;4.96;72.97
12775;BME280;6451;42.630;23.382;2023-04-06T01:08:32;93992.00;;;5.04;72.05
12775;BME280;6451;42.630;23.382;2023-04-06T01:10:59;94046.44;;;5.10;72.40
12775;BME280;6451;42.630;23.382;2023-04-06T01:13:27;94037.00;;;5.50;71.53
12775;BME280;6451;42.630;23.382;2023-04-06T01:15:54;94040.59;;;5.63;72.10
12775;BME280;6451;42.630;23.382;2023-04-06T01:18:25;94006.91;;;5.01;72.58
12775;BME280;6451;42.630;23.382;2023-04-06T01:20:54;94032.63;;;5.37;71.90
12775;BME280;6451;42.630;23.382;2023-04-06T01:23:23;94035.19;;;5.72;72.07
12775;BME280;6451;42.630;23.382;2023-04-06T01:25:50;94020.91;;;5.33;71.74
12775;BME280;6451;42.630;23.382;2023-04-06T01:28:17;93993.34;;;5.36;71.75
12775;BME280;6451;42.630;23.382;2023-04-06T01:30:44;94027.78;;;4.96;73.43
12775;BME280;6451;42.630;23.382;2023-04-06T01:33:11;94025.66;;;5.27;73.22
12775;BME280;6451;42.630;23.382;2023-04-06T01:35:38;94005.16;;;5.14;73.17
12775;BME280;6451;42.630;23.382;2023-04-06T01:38:05;94007.56;;;4.64;73.88
12775;BME280;6451;42.630;23.382;2023-04-06T01:40:33;94016.38;;;4.90;74.31
12775;BME280;6451;42.630;23.382;2023-04-06T01:43:00;94018.88;;;5.13;73.69
12775;BME280;6451;42.630;23.382;2023-04-06T01:45:28;94019.72;;;4.87;74.95
12775;BME280;6451;42.630;23.382;2023-04-06T01:47:55;94020.75;;;5.21;74.16
12775;BME280;6451;42.630;23.382;2023-04-06T01:50:23;94009.59;;;4.93;74.91
12775;BME280;6451;42.630;23.382;2023-04-06T01:52:50;94017.19;;;4.99;74.95
12775;BME280;6451;42.630;23.382;2023-04-06T01:55:17;94006.00;;;4.45;75.32
12775;BME280;6451;42.630;23.382;2023-04-06T01:57:46;94014.03;;;4.71;75.38
12775;BME280;6451;42.630;23.382;2023-04-06T02:00:14;93981.63;;;4.85;74.07
12775;BME280;6451;42.630;23.382;2023-04-06T02:02:42;93997.06;;;5.14;73.80
12775;BME280;6451;42.630;23.382;2023-04-06T02:05:10;94002.13;;;5.16;74.47
12775;BME280;6451;42.630;23.382;2023-04-06T02:07:37;93996.47;;;5.00;74.32
12775;BME280;6451;42.630;23.382;2023-04-06T02:10:11;94002.97;;;4.99;74.66
12775;BME280;6451;42.630;23.382;2023-04-06T02:12:38;93990.50;;;4.42;75.71
12775;BME280;6451;42.630;23.382;2023-04-06T02:15:08;93961.06;;;4.81;74.36
12775;BME280;6451;42.630;23.382;2023-04-06T02:17:35;93971.34;;;4.87;74.90
12775;BME280;6451;42.630;23.382;2023-04-06T02:20:02;93990.59;;;5.07;74.04
12775;BME280;6451;42.630;23.382;2023-04-06T02:22:29;93916.34;;;4.67;73.84
12775;BME280;6451;42.630;23.382;2023-04-06T02:24:56;93946.06;;;4.71;73.82
12775;BME280;6451;42.630;23.382;2023-04-06T02:27:23;93996.13;;;5.10;74.79
12775;BME280;6451;42.630;23.382;2023-04-06T02:29:51;94002.97;;;5.54;73.63
12775;BME280;6451;42.630;23.382;2023-04-06T02:32:20;93992.66;;;5.01;74.08
12775;BME280;6451;42.630;23.382;2023-04-06T02:34:47;94017.22;;;4.91;74.92
12775;BME280;6451;42.630;23.382;2023-04-06T02:37:14;94001.66;;;5.14;74.64
12775;BME280;6451;42.630;23.382;2023-04-06T02:39:42;94002.66;;;5.47;73.81
12775;BME280;6451;42.630;23.382;2023-04-06T02:42:11;93992.72;;;5.39;72.92
12775;BME280;6451;42.630;23.382;2023-04-06T02:44:40;93992.69;;;5.48;73.31
12775;BME280;6451;42.630;23.382;2023-04-06T02:47:07;93970.25;;;4.71;74.34
12775;BME280;6451;42.630;23.382;2023-04-06T02:49:36;94002.50;;;5.44;73.66
12775;BME280;6451;42.630;23.382;2023-04-06T02:52:03;93992.78;;;5.22;74.61
12775;BME280;6451;42.630;23.382;2023-04-06T02:54:30;93999.25;;;5.29;74.11
12775;BME280;6451;42.630;23.382;2023-04-06T02:56:58;94002.66;;;4.92;75.28
12775;BME280;6451;42.630;23.382;2023-04-06T02:59:26;94000.56;;;5.15;74.88
12775;BME280;6451;42.630;23.382;2023-04-06T03:01:53;93997.97;;;5.27;74.44
12775;BME280;6451;42.630;23.382;2023-04-06T03:04:20;94004.16;;;5.27;73.99
12775;BME280;6451;42.630;23.382;2023-04-06T03:06:53;93945.63;;;4.60;74.95
12775;BME280;6451;42.630;23.382;2023-04-06T03:09:20;93987.63;;;4.91;75.46
12775;BME280;6451;42.630;23.382;2023-04-06T03:11:48;94002.66;;;4.83;75.31
12775;BME280;6451;42.630;23.382;2023-04-06T03:14:15;93994.59;;;5.47;74.32
12775;BME280;6451;42.630;23.382;2023-04-06T03:16:49;93988.84;;;5.11;74.69
12775;BME280;6451;42.630;23.382;2023-04-06T03:19:16;93995.19;;;4.89;76.38
12775;BME280;6451;42.630;23.382;2023-04-06T03:21:43;93982.06;;;5.60;74.31
12775;BME280;6451;42.630;23.382;2023-04-06T03:24:11;93984.53;;;5.27;74.55
12775;BME280;6451;42.630;23.382;2023-04-06T03:26:39;93936.28;;;4.58;75.18
12775;BME280;6451;42.630;23.382;2023-04-06T03:29:06;93995.41;;;5.39;74.34
12775;BME280;6451;42.630;23.382;2023-04-06T03:31:33;93988.22;;;5.52;74.39
12775;BME280;6451;42.630;23.382;2023-04-06T03:34:00;93992.94;;;5.17;74.96
12775;BME280;6451;42.630;23.382;2023-04-06T03:36:27;94001.06;;;4.82;75.76
12775;BME280;6451;42.630;23.382;2023-04-06T03:38:54;93991.56;;;4.93;74.71
12775;BME280;6451;42.630;23.382;2023-04-06T03:41:22;93992.03;;;4.95;75.50
12775;BME280;6451;42.630;23.382;2023-04-06T03:43:50;93976.06;;;4.99;75.21
12775;BME280;6451;42.630;23.382;2023-04-06T03:46:17;93994.88;;;5.54;73.70
12775;BME280;6451;42.630;23.382;2023-04-06T03:48:48;93966.53;;;5.10;74.26
12775;BME280;6451;42.630;23.382;2023-04-06T03:51:15;93934.66;;;4.83;74.97
12775;BME280;6451;42.630;23.382;2023-04-06T03:53:42;93990.75;;;5.57;74.08
12775;BME280;6451;42.630;23.382;2023-04-06T03:56:10;93991.66;;;5.32;73.63
12775;BME280;6451;42.630;23.382;2023-04-06T03:58:38;93989.16;;;5.09;73.68
12775;BME280;6451;42.630;23.382;2023-04-06T04:01:05;93994.41;;;4.97;74.90
12775;BME280;6451;42.630;23.382;2023-04-06T04:03:32;94007.13;;;5.35;74.02
12775;BME280;6451;42.630;23.382;2023-04-06T04:05:59;93985.47;;;5.31;73.71
12775;BME280;6451;42.630;23.382;2023-04-06T04:08:26;93982.72;;;5.48;73.35
12775;BME280;6451;42.630;23.382;2023-04-06T04:10:53;93993.22;;;5.33;72.75
12775;BME280;6451;42.630;23.382;2023-04-06T04:13:20;93986.72;;;5.34;73.32
12775;BME280;6451;42.630;23.382;2023-04-06T04:15:49;93971.88;;;5.27;73.49
12775;BME280;6451;42.630;23.382;2023-04-06T04:18:17;93973.34;;;5.08;73.92
12775;BME280;6451;42.630;23.382;2023-04-06T04:20:44;93989.84;;;5.44;73.69
12775;BME280;6451;42.630;23.382;2023-04-06T04:23:11;93994.56;;;6.24;71.69
12775;BME280;6451;42.630;23.382;2023-04-06T04:25:38;93919.66;;;5.28;72.04
12775;BME280;6451;42.630;23.382;2023-04-06T04:28:05;94009.03;;;5.34;72.91
12775;BME280;6451;42.630;23.382;2023-04-06T04:30:33;94001.63;;;6.07;71.68
12775;BME280;6451;42.630;23.382;2023-04-06T04:33:02;93978.41;;;6.24;70.66
12775;BME280;6451;42.630;23.382;2023-04-06T04:35:29;93992.28;;;5.67;71.72
12775;BME280;6451;42.630;23.382;2023-04-06T04:37:56;93990.19;;;5.34;72.73
12775;BME280;6451;42.630;23.382;2023-04-06T04:40:23;94007.59;;;5.45;72.38
12775;BME280;6451;42.630;23.382;2023-04-06T04:42:52;93996.75;;;5.63;72.41
12775;BME280;6451;42.630;23.382;2023-04-06T04:45:19;93994.44;;;5.82;72.16
12775;BME280;6451;42.630;23.382;2023-04-06T04:47:46;93976.13;;;5.67;71.76
12775;BME280;6451;42.630;23.382;2023-04-06T04:50:14;93988.41;;;5.85;71.83
12775;BME280;6451;42.630;23.382;2023-04-06T04:52:42;93995.28;;;5.74;72.04
12775;BME280;6451;42.630;23.382;2023-04-06T04:55:09;93976.91;;;5.76;71.29
12775;BME280;6451;42.630;23.382;2023-04-06T04:57:37;93994.91;;;6.64;69.23
12775;BME280;6451;42.630;23.382;2023-04-06T05:00:06;93997.22;;;6.53;68.79
12775;BME280;6451;42.630;23.382;2023-04-06T05:02:34;94005.94;;;6.29;68.80
12775;BME280;6451;42.630;23.382;2023-04-06T05:05:01;93975.03;;;6.06;70.50
12775;BME280;6451;42.630;23.382;2023-04-06T05:07:29;93991.25;;;6.18;69.87
12775;BME280;6451;42.630;23.382;2023-04-06T05:09:56;93983.59;;;6.29;69.42
12775;BME280;6451;42.630;23.382;2023-04-06T05:12:23;93993.50;;;6.79;68.03
12775;BME280;6451;42.630;23.382;2023-04-06T05:14:51;94001.47;;;6.54;67.29
12775;BME280;6451;42.630;23.382;2023-04-06T05:17:19;93996.47;;;6.65;68.01
12775;BME280;6451;42.630;23.382;2023-04-06T05:19:47;93987.25;;;6.66;67.54
12775;BME280;6451;42.630;23.382;2023-04-06T05:22:14;94000.91;;;6.69;67.54
12775;BME280;6451;42.630;23.382;2023-04-06T05:24:44;93887.59;;;5.74;68.07
12775;BME280;6451;42.630;23.382;2023-04-06T05:27:11;93993.50;;;6.79;67.65
12775;BME280;6451;42.630;23.382;2023-04-06T05:29:38;93994.03;;;6.93;66.96
12775;BME280;6451;42.630;23.382;2023-04-06T05:32:05;94006.22;;;7.11;66.89
12775;BME280;6451;42.630;23.382;2023-04-06T05:34:36;94011.16;;;6.55;67.66
12775;BME280;6451;42.630;23.382;2023-04-06T05:37:03;94007.84;;;6.29;68.90
12775;BME280;6451;42.630;23.382;2023-04-06T05:39:30;93989.41;;;6.60;68.17
12775;BME280;6451;42.630;23.382;2023-04-06T05:42:02;93993.78;;;6.65;68.46
12775;BME280;6451;42.630;23.382;2023-04-06T05:44:37;93990.25;;;6.52;68.85
12775;BME280;6451;42.630;23.382;2023-04-06T05:47:04;94004.00;;;6.09;69.62
12775;BME280;6451;42.630;23.382;2023-04-06T05:49:31;93996.31;;;7.03;68.11
12775;BME280;6451;42.630;23.382;2023-04-06T05:51:58;93998.38;;;7.18;67.40
12775;BME280;6451;42.630;23.382;2023-04-06T05:54:25;93995.59;;;6.94;68.52
12775;BME280;6451;42.630;23.382;2023-04-06T05:56:52;94002.59;;;6.53;69.70
12775;BME280;6451;42.630;23.382;2023-04-06T05:59:21;93980.94;;;6.20;70.31
12775;BME280;6451;42.630;23.382;2023-04-06T06:01:49;93985.50;;;6.70;69.82
12775;BME280;6451;42.630;23.382;2023-04-06T06:04:16;93983.25;;;6.93;69.42
12775;BME280;6451;42.630;23.382;2023-04-06T06:06:44;93980.44;;;6.48;69.57
12775;BME280;6451;42.630;23.382;2023-04-06T06:09:11;93979.50;;;6.85;70.64
12775;BME280;6451;42.630;23.382;2023-04-06T06:11:38;93983.94;;;6.69;70.13
12775;BME280;6451;42.630;23.382;2023-04-06T06:14:05;93984.19;;;6.55;69.84
12775;BME280;6451;42.630;23.382;2023-04-06T06:16:33;93993.28;;;7.05;68.88
12775;BME280;6451;42.630;23.382;2023-04-06T06:19:00;93974.34;;;7.25;68.63
12775;BME280;6451;42.630;23.382;2023-04-06T06:21:27;93991.41;;;7.63;67.93
12775;BME280;6451;42.630;23.382;2023-04-06T06:23:56;93981.38;;;7.06;69.17
12775;BME280;6451;42.630;23.382;2023-04-06T06:26:24;93990.34;;;7.43;68.28
12775;BME280;6451;42.630;23.382;2023-04-06T06:28:52;93968.56;;;7.60;67.03
12775;BME280;6451;42.630;23.382;2023-04-06T06:31:19;93977.28;;;6.66;69.32
12775;BME280;6451;42.630;23.382;2023-04-06T06:33:50;93946.81;;;6.87;69.16
12775;BME280;6451;42.630;23.382;2023-04-06T06:38:52;94000.63;;;6.62;69.71
12775;BME280;6451;42.630;23.382;2023-04-06T06:41:19;93977.34;;;6.79;70.56
12775;BME280;6451;42.630;23.382;2023-04-06T06:43:48;93988.91;;;6.79;69.67
12775;BME280;6451;42.630;23.382;2023-04-06T06:46:16;93972.66;;;7.21;70.12
12775;BME280;6451;42.630;23.382;2023-04-06T06:48:43;93977.25;;;7.90;68.68
12775;BME280;6451;42.630;23.382;2023-04-06T06:51:12;93975.16;;;7.50;68.08
12775;BME280;6451;42.630;23.382;2023-04-06T06:53:40;93986.31;;;7.49;67.37
12775;BME280;6451;42.630;23.382;2023-04-06T06:56:07;93982.19;;;7.76;67.83
12775;BME280;6451;42.630;23.382;2023-04-06T06:58:34;93984.97;;;6.77;69.99
12775;BME280;6451;42.630;23.382;2023-04-06T07:01:01;93983.13;;;7.22;71.50
12775;BME280;6451;42.630;23.382;2023-04-06T07:03:30;93967.06;;;6.93;70.55
12775;BME280;6451;42.630;23.382;2023-04-06T07:05:58;93989.75;;;6.92;70.79
12775;BME280;6451;42.630;23.382;2023-04-06T07:08:27;93959.97;;;7.21;69.92
12775;BME280;6451;42.630;23.382;2023-04-06T07:10:54;93972.25;;;7.56;68.13
12775;BME280;6451;42.630;23.382;2023-04-06T07:13:22;93980.81;;;7.58;69.52
12775;BME280;6451;42.630;23.382;2023-04-06T07:15:51;93952.34;;;6.90;70.48
12775;BME280;6451;42.630;23.382;2023-04-06T07:18:19;93943.22;;;7.40;69.51
12775;BME280;6451;42.630;23.382;2023-04-06T07:20:46;93973.28;;;7.63;67.86
12775;BME280;6451;42.630;23.382;2023-04-06T07:23:13;93981.06;;;7.89;68.34
12775;BME280;6451;42.630;23.382;2023-04-06T07:25:42;93950.84;;;8.48;66.29
12775;BME280;6451;42.630;23.382;2023-04-06T07:28:09;93985.34;;;7.78;67.48
12775;BME280;6451;42.630;23.382;2023-04-06T07:30:37;93990.97;;;7.61;67.18
12775;BME280;6451;42.630;23.382;2023-04-06T07:33:04;93957.97;;;8.16;66.30
12775;BME280;6451;42.630;23.382;2023-04-06T07:35:33;93966.44;;;8.15;65.20
12775;BME280;6451;42.630;23.382;2023-04-06T07:38:02;93932.88;;;8.03;64.45
12775;BME280;6451;42.630;23.382;2023-04-06T07:40:29;93972.38;;;7.71;66.93
12775;BME280;6451;42.630;23.382;2023-04-06T07:42:58;93977.31;;;7.45;67.08
12775;BME280;6451;42.630;23.382;2023-04-06T07:45:25;93973.19;;;7.96;67.35
12775;BME280;6451;42.630;23.382;2023-04-06T07:47:52;93902.91;;;7.11;67.02
12775;BME280;6451;42.630;23.382;2023-04-06T07:50:19;93972.28;;;8.17;66.04
12775;BME280;6451;42.630;23.382;2023-04-06T07:52:48;93913.00;;;7.84;66.06
12775;BME280;6451;42.630;23.382;2023-04-06T07:55:17;93920.84;;;7.40;66.09
12775;BME280;6451;42.630;23.382;2023-04-06T07:57:44;93936.38;;;6.97;69.41
12775;BME280;6451;42.630;23.382;2023-04-06T08:00:13;93979.88;;;6.96;70.13
12775;BME280;6451;42.630;23.382;2023-04-06T08:02:41;93973.81;;;7.32;69.95
12775;BME280;6451;42.630;23.382;2023-04-06T08:05:08;93971.63;;;7.83;68.59
12775;BME280;6451;42.630;23.382;2023-04-06T08:07:35;93969.00;;;7.50;69.41
12775;BME280;6451;42.630;23.382;2023-04-06T08:10:04;93965.97;;;7.64;70.16
12775;BME280;6451;42.630;23.382;2023-04-06T08:12:32;93968.47;;;7.69;69.93
12775;BME280;6451;42.630;23.382;2023-04-06T08:15:02;93969.91;;;7.78;69.68
12775;BME280;6451;42.630;23.382;2023-04-06T08:17:31;93944.72;;;7.62;67.67
12775;BME280;6451;42.630;23.382;2023-04-06T08:19:59;93968.66;;;7.64;68.15
12775;BME280;6451;42.630;23.382;2023-04-06T08:22:26;93973.97;;;7.60;67.23
12775;BME280;6451;42.630;23.382;2023-04-06T08:24:56;93964.19;;;7.68;67.52
12775;BME280;6451;42.630;23.382;2023-04-06T08:27:23;93960.66;;;8.81;66.13
12775;BME280;6451;42.630;23.382;2023-04-06T08:29:51;93962.25;;;8.29;66.37
12775;BME280;6451;42.630;23.382;2023-04-06T08:32:18;93960.41;;;8.33;67.14
12775;BME280;6451;42.630;23.382;2023-04-06T08:34:46;93956.59;;;8.34;65.61
12775;BME280;6451;42.630;23.382;2023-04-06T08:37:13;93974.41;;;8.11;65.02
12775;BME280;6451;42.630;23.382;2023-04-06T08:39:40;93962.50;;;8.00;64.93
12775;BME280;6451;42.630;23.382;2023-04-06T08:42:12;93954.00;;;8.26;64.60
12775;BME280;6451;42.630;23.382;2023-04-06T08:44:43;93969.91;;;8.15;64.63
12775;BME280;6451;42.630;23.382;2023-04-06T08:47:11;93951.94;;;8.59;62.56
12775;BME280;6451;42.630;23.382;2023-04-06T08:49:38;93942.19;;;8.18;62.32
12775;BME280;6451;42.630;23.382;2023-04-06T08:52:07;93957.41;;;8.11;61.79
12775;BME280;6451;42.630;23.382;2023-04-06T08:54:34;93963.41;;;7.92;62.24
12775;BME280;6451;42.630;23.382;2023-04-06T08:57:02;93940.53;;;8.14;60.70
12775;BME280;6451;42.630;23.382;2023-04-06T08:59:29;93963.72;;;8.15;60.95
12775;BME280;6451;42.630;23.382;2023-04-06T09:01:57;93978.13;;;7.70;62.47
12775;BME280;6451;42.630;23.382;2023-04-06T09:04:24;93941.31;;;8.14;62.15
12775;BME280;6451;42.630;23.382;2023-04-06T09:06:52;93944.69;;;8.23;62.65
12775;BME280;6451;42.630;23.382;2023-04-06T09:09:21;93965.97;;;7.88;62.68
12775;BME280;6451;42.630;23.382;2023-04-06T09:11:51;93950.31;;;8.18;62.32
12775;BME280;6451;42.630;23.382;2023-04-06T09:14:33;93920.97;;;8.57;62.18
12775;BME280;6451;42.630;23.382;2023-04-06T09:17:01;93938.56;;;8.26;62.70
12775;BME280;6451;42.630;23.382;2023-04-06T09:19:29;93943.78;;;9.00;60.64
12775;BME280;6451;42.630;23.382;2023-04-06T09:22:02;93981.41;;;8.37;60.83
12775;BME280;6451;42.630;23.382;2023-04-06T09:24:41;93948.66;;;8.01;61.36
12775;BME280;6451;42.630;23.382;2023-04-06T09:27:08;93953.81;;;8.71;61.44
12775;BME280;6451;42.630;23.382;2023-04-06T09:29:41;93921.69;;;8.42;60.88
12775;BME280;6451;42.630;23.382;2023-04-06T09:32:10;93948.78;;;8.57;60.66
12775;BME280;6451;42.630;23.382;2023-04-06T09:34:38;93955.25;;;9.09;59.81
12775;BME280;6451;42.630;23.382;2023-04-06T09:37:14;93933.41;;;9.02;59.08
12775;BME280;6451;42.630;23.382;2023-04-06T09:39:43;93935.34;;;9.17;59.41
12775;BME280;6451;42.630;23.382;2023-04-06T09:42:12;93960.22;;;9.07;59.16
12775;BME280;6451;42.630;23.382;2023-04-06T09:44:49;93955.00;;;8.86;58.30
12775;BME280;6451;42.630;23.382;2023-04-06T09:47:16;93938.28;;;8.68;59.26
12775;BME280;6451;42.630;23.382;2023-04-06T09:49:45;93926.81;;;9.31;58.28
12775;BME280;6451;42.630;23.382;2023-04-06T09:52:14;93930.59;;;8.70;58.26
12775;BME280;6451;42.630;23.382;2023-04-06T09:54:45;93936.81;;;8.71;58.91
12775;BME280;6451;42.630;23.382;2023-04-06T09:57:20;93947.66;;;8.58;58.36
12775;BME280;6451;42.630;23.382;2023-04-06T09:59:55;93932.69;;;9.48;56.74
12775;BME280;6451;42.630;23.382;2023-04-06T10:02:36;93937.59;;;8.71;56.55
12775;BME280;6451;42.630;23.382;2023-04-06T10:05:09;93931.56;;;8.50;57.78
12775;BME280;6451;42.630;23.382;2023-04-06T10:07:40;93945.72;;;8.99;57.42
12775;BME280;6451;42.630;23.382;2023-04-06T10:10:11;93921.06;;;9.32;57.08
12775;BME280;6451;42.630;23.382;2023-04-06T10:12:41;93918.84;;;9.06;56.22
12775;BME280;6451;42.630;23.382;2023-04-06T10:15:11;93914.16;;;9.35;55.72
12775;BME280;6451;42.630;23.382;2023-04-06T10:17:38;93906.72;;;9.32;55.31
12775;BME280;6451;42.630;23.382;2023-04-06T10:20:09;93918.72;;;9.46;54.94
12775;BME280;6451;42.630;23.382;2023-04-06T10:22:43;93733.50;;;8.09;55.37
12775;BME280;6451;42.630;23.382;2023-04-06T10:25:26;93922.09;;;9.28;55.17
12775;BME280;6451;42.630;23.382;2023-04-06T10:27:59;93928.97;;;9.09;55.50
12775;BME280;6451;42.630;23.382;2023-04-06T10:30:27;93921.31;;;9.43;54.75
12775;BME280;6451;42.630;23.382;2023-04-06T10:32:54;93936.63;;;9.67;54.42
12775;BME280;6451;42.630;23.382;2023-04-06T10:35:21;93912.66;;;9.22;55.13
12775;BME280;6451;42.630;23.382;2023-04-06T10:37:54;93929.34;;;9.39;55.40
12775;BME280;6451;42.630;23.382;2023-04-06T10:40:28;93921.59;;;9.54;54.72
12775;BME280;6451;42.630;23.382;2023-04-06T10:43:08;93926.25;;;10.36;53.14
12775;BME280;6451;42.630;23.382;2023-04-06T10:45:36;93915.34;;;10.51;53.36
12775;BME280;6451;42.630;23.382;2023-04-06T10:48:12;93906.34;;;9.81;54.28
12775;BME280;6451;42.630;23.382;2023-04-06T10:50:41;93948.50;;;9.46;53.45
12775;BME280;6451;42.630;23.382;2023-04-06T10:53:08;93934.09;;;9.74;54.30
12775;BME280;6451;42.630;23.382;2023-04-06T10:55:38;93939.94;;;9.29;52.64
12775;BME280;6451;42.630;23.382;2023-04-06T10:58:07;93934.47;;;10.23;53.58
12775;BME280;6451;42.630;23.382;2023-04-06T11:00:34;93921.69;;;10.59;52.42
12775;BME280;6451;42.630;23.382;2023-04-06T11:03:01;93925.94;;;10.41;52.38
12775;BME280;6451;42.630;23.382;2023-04-06T11:05:29;93941.63;;;10.16;53.00
12775;BME280;6451;42.630;23.382;2023-04-06T11:07:56;93928.50;;;9.67;53.86
12775;BME280;6451;42.630;23.382;2023-04-06T11:10:24;93885.50;;;9.18;54.25
12775;BME280;6451;42.630;23.382;2023-04-06T11:12:54;93929.19;;;9.64;53.94
12775;BME280;6451;42.630;23.382;2023-04-06T11:15:22;93923.16;;;9.23;54.62
12775;BME280;6451;42.630;23.382;2023-04-06T11:17:50;93913.19;;;9.43;54.25
12775;BME280;6451;42.630;23.382;2023-04-06T11:20:17;93928.03;;;10.47;53.75
12775;BME280;6451;42.630;23.382;2023-04-06T11:22:49;93938.38;;;9.43;54.75
12775;BME280;6451;42.630;23.382;2023-04-06T11:25:16;93923.28;;;10.25;53.14
12775;BME280;6451;42.630;23.382;2023-04-06T11:27:44;93907.22;;;10.00;52.37
12775;BME280;6451;42.630;23.382;2023-04-06T11:30:14;93879.56;;;9.60;52.79
12775;BME280;6451;42.630;23.382;2023-04-06T11:32:42;93915.91;;;9.74;53.63
12775;BME280;6451;42.630;23.382;2023-04-06T11:35:19;93922.78;;;10.74;52.74
12775;BME280;6451;42.630;23.382;2023-04-06T11:37:46;93922.84;;;10.23;53.16
12775;BME280;6451;42.630;23.382;2023-04-06T11:40:13;93917.31;;;10.54;51.86
12775;BME280;6451;42.630;23.382;2023-04-06T11:42:40;93879.09;;;11.02;50.70
12775;BME280;6451;42.630;23.382;2023-04-06T11:45:07;93921.63;;;10.20;52.36
12775;BME280;6451;42.630;23.382;2023-04-06T11:47:37;93888.97;;;10.33;51.71
12775;BME280;6451;42.630;23.382;2023-04-06T11:50:07;93910.31;;;10.34;52.01
12775;BME280;6451;42.630;23.382;2023-04-06T11:52:35;93903.31;;;10.33;52.59
12775;BME280;6451;42.630;23.382;2023-04-06T11:55:15;93883.53;;;10.33;51.14
12775;BME280;6451;42.630;23.382;2023-04-06T11:57:43;93896.44;;;10.20;51.34
12775;BME280;6451;42.630;23.382;2023-04-06T12:00:11;93907.00;;;10.25;51.84
12775;BME280;6451;42.630;23.382;2023-04-06T12:02:44;93910.66;;;10.33;51.23
12775;BME280;6451;42.630;23.382;2023-04-06T12:05:12;93900.19;;;10.70;50.95
12775;BME280;6451;42.630;23.382;2023-04-06T12:07:39;93902.19;;;10.92;50.25
12775;BME280;6451;42.630;23.382;2023-04-06T12:10:06;93900.91;;;10.86;50.02
12775;BME280;6451;42.630;23.382;2023-04-06T12:12:34;93877.78;;;10.53;50.73
12775;BME280;6451;42.630;23.382;2023-04-06T12:15:02;93911.47;;;10.52;51.40
12775;BME280;6451;42.630;23.382;2023-04-06T12:17:30;93908.50;;;10.22;52.46
12775;BME280;6451;42.630;23.382;2023-04-06T12:19:58;93911.06;;;9.99;52.22
12775;BME280;6451;42.630;23.382;2023-04-06T12:22:26;93905.06;;;9.90;52.37
12775;BME280;6451;42.630;23.382;2023-04-06T12:24:55;93901.13;;;10.77;50.65
12775;BME280;6451;42.630;23.382;2023-04-06T12:27:23;93899.41;;;10.15;51.22
12775;BME280;6451;42.630;23.382;2023-04-06T12:29:50;93912.50;;;9.62;53.00
12775;BME280;6451;42.630;23.382;2023-04-06T12:32:18;93912.31;;;9.55;53.20
12775;BME280;6451;42.630;23.382;2023-04-06T12:34:45;93877.69;;;9.80;53.17
12775;BME280;6451;42.630;23.382;2023-04-06T12:37:13;93903.34;;;10.52;51.99
12775;BME280;6451;42.630;23.382;2023-04-06T12:39:40;93903.69;;;10.16;52.42
12775;BME280;6451;42.630;23.382;2023-04-06T12:42:09;93901.22;;;10.26;52.74
12775;BME280;6451;42.630;23.382;2023-04-06T12:44:38;93899.56;;;9.39;53.84
12775;BME280;6451;42.630;23.382;2023-04-06T12:47:05;93905.25;;;9.50;53.41
12775;BME280;6451;42.630;23.382;2023-04-06T12:49:34;93877.53;;;9.57;52.64
12775;BME280;6451;42.630;23.382;2023-04-06T12:52:03;93910.81;;;9.73;52.71
12775;BME280;6451;42.630;23.382;2023-04-06T12:54:31;93888.47;;;9.76;52.63
12775;BME280;6451;42.630;23.382;2023-04-06T12:56:58;93886.91;;;9.43;53.09
12775;BME280;6451;42.630;23.382;2023-04-06T12:59:26;93896.63;;;8.85;53.78
12775;BME280;6451;42.630;23.382;2023-04-06T13:01:56;93844.06;;;8.70;54.08
12775;BME280;6451;42.630;23.382;2023-04-06T13:04:23;93887.72;;;9.95;52.95
12775;BME280;6451;42.630;23.382;2023-04-06T13:06:51;93884.38;;;9.66;52.34
12775;BME280;6451;42.630;23.382;2023-04-06T13:09:18;93877.72;;;9.32;53.53
12775;BME280;6451;42.630;23.382;2023-04-06T13:11:48;93882.94;;;9.72;52.20
12775;BME280;6451;42.630;23.382;2023-04-06T13:14:16;93888.31;;;9.53;52.43
12775;BME280;6451;42.630;23.382;2023-04-06T13:16:43;93888.38;;;9.72;52.62
12775;BME280;6451;42.630;23.382;2023-04-06T13:19:10;93881.22;;;9.48;52.75